Terminal Aerodrome Forecast
Issued by NWS

Home | Current Version | Previous Version | Text Only | Print | Product List | Glossary On
Versions: 1 2 3 4 5 6 7 8 9 10 11 12 13 14 15 16
000
FTUS42 KTBW 281200 AAA
TAFPIE
TAF AMD
KPIE 281214Z 2812/2912 VRB03KT 6SM BR FEW020
      TEMPO 2812/2814 3SM BR
     FM281500 19003KT P6SM SCT250
     FM281900 20006KT P6SM SCT250
     FM290600 19005KT 5SM BR SCT250=

USA.gov is the U.S. government's official web portal to all federal, state and local government web resources and services.